createdAt,value
2022-09-27T00:01:02.206Z,10.70
2022-09-27T00:03:35.112Z,10.70
2022-09-27T00:06:10.925Z,10.70
2022-09-27T00:08:43.749Z,10.70
2022-09-27T00:11:27.280Z,10.60
2022-09-27T00:14:00.771Z,10.60
2022-09-27T00:16:36.825Z,10.60
2022-09-27T00:19:21.818Z,10.70
2022-09-27T00:21:54.558Z,10.70
2022-09-27T00:24:27.442Z,10.60
2022-09-27T00:27:00.192Z,10.60
2022-09-27T00:29:33.307Z,10.60
2022-09-27T00:32:06.074Z,10.60
2022-09-27T00:34:39.502Z,10.50
2022-09-27T00:37:12.487Z,10.50
2022-09-27T00:39:45.372Z,10.50
2022-09-27T00:42:18.079Z,10.40
2022-09-27T00:45:04.195Z,10.50
2022-09-27T00:47:44.294Z,10.50
2022-09-27T00:50:31.175Z,10.50
2022-09-27T00:53:16.814Z,10.40
2022-09-27T00:55:59.264Z,10.40
2022-09-27T00:58:56.798Z,10.50
2022-09-27T01:01:32.696Z,10.50
2022-09-27T01:04:22.477Z,10.40
2022-09-27T01:06:55.412Z,10.40
2022-09-27T01:09:29.055Z,10.40
2022-09-27T01:12:14.210Z,10.40
2022-09-27T01:14:56.209Z,10.30
2022-09-27T01:17:50.779Z,10.30
2022-09-27T01:21:10.349Z,10.30
2022-09-27T01:24:08.106Z,10.30
2022-09-27T01:26:56.385Z,10.30
2022-09-27T01:30:07.035Z,10.30
2022-09-27T01:33:10.929Z,10.20
2022-09-27T01:35:59.128Z,10.20
2022-09-27T01:38:49.920Z,10.20
2022-09-27T01:41:38.629Z,10.10
2022-09-27T01:44:44.898Z,10.10
2022-09-27T01:47:28.926Z,10.00
2022-09-27T01:50:35.564Z,10.00
2022-09-27T01:53:13.727Z,10.00
2022-09-27T01:56:09.694Z,10.00
2022-09-27T01:59:02.962Z,10.00
2022-09-27T02:01:40.295Z,10.00
2022-09-27T02:04:18.781Z,10.00
2022-09-27T02:07:23.573Z,10.00
2022-09-27T02:10:23.173Z,10.00
2022-09-27T02:13:23.594Z,10.00
2022-09-27T02:16:16.838Z,10.00
2022-09-27T02:19:11.868Z,10.00
2022-09-27T02:22:12.915Z,10.00
2022-09-27T02:24:48.948Z,10.00
2022-09-27T02:27:27.739Z,10.00
2022-09-27T02:30:06.058Z,10.00
2022-09-27T02:32:40.401Z,10.00
2022-09-27T02:35:26.367Z,10.00
2022-09-27T02:37:59.686Z,10.00
2022-09-27T02:40:35.832Z,9.90
2022-09-27T02:43:10.392Z,9.90
2022-09-27T02:45:48.992Z,9.90
2022-09-27T02:48:29.690Z,9.90
2022-09-27T02:51:38.925Z,9.90
2022-09-27T02:54:24.431Z,9.90
2022-09-27T02:57:50.296Z,9.80
2022-09-27T03:00:53.914Z,9.80
2022-09-27T03:03:53.854Z,9.90
2022-09-27T03:06:28.862Z,9.80
2022-09-27T03:09:01.573Z,9.80
2022-09-27T03:11:34.768Z,9.80
2022-09-27T03:14:09.195Z,9.80
2022-09-27T03:16:48.147Z,9.80
2022-09-27T03:19:39.660Z,9.80
2022-09-27T03:22:31.245Z,9.70
2022-09-27T03:25:05.697Z,9.70
2022-09-27T03:27:39.198Z,9.70
2022-09-27T03:30:13.986Z,9.70
2022-09-27T03:32:47.032Z,9.70
2022-09-27T03:35:43.918Z,9.70
2022-09-27T03:38:17.042Z,9.70
2022-09-27T03:40:49.799Z,9.70
2022-09-27T03:43:22.758Z,9.70
2022-09-27T03:45:55.598Z,9.70
2022-09-27T03:48:31.078Z,9.60
2022-09-27T03:51:04.541Z,9.60
2022-09-27T03:53:37.363Z,9.60
2022-09-27T03:56:11.190Z,9.60
2022-09-27T03:58:45.070Z,9.60
2022-09-27T04:01:18.138Z,9.60
2022-09-27T04:03:53.663Z,9.50
2022-09-27T04:06:35.364Z,9.60
2022-09-27T04:09:09.013Z,9.60
2022-09-27T04:12:02.291Z,9.60
2022-09-27T04:14:35.314Z,9.60
2022-09-27T04:17:27.518Z,9.60
2022-09-27T04:20:23.438Z,9.60
2022-09-27T04:22:56.379Z,9.60
2022-09-27T04:25:29.319Z,9.60
2022-09-27T04:28:06.086Z,9.60
2022-09-27T04:30:39.631Z,9.60
2022-09-27T04:33:18.356Z,9.60
2022-09-27T04:36:27.873Z,9.60
2022-09-27T04:42:03.482Z,9.60
2022-09-27T04:44:36.310Z,9.60
2022-09-27T04:47:09.252Z,9.60
2022-09-27T04:49:42.162Z,9.60
2022-09-27T04:52:15.410Z,9.60
2022-09-27T04:54:48.352Z,9.70
2022-09-27T04:57:21.137Z,9.60
2022-09-27T04:59:53.918Z,9.60
2022-09-27T05:02:28.019Z,9.60
2022-09-27T05:05:38.771Z,9.60
2022-09-27T05:08:11.684Z,9.50
2022-09-27T05:11:18.043Z,9.50
2022-09-27T05:14:11.736Z,9.50
2022-09-27T05:16:55.426Z,9.50
2022-09-27T05:19:51.451Z,9.50
2022-09-27T05:22:35.541Z,9.40
2022-09-27T05:25:09.106Z,9.40
2022-09-27T05:27:42.248Z,9.40
2022-09-27T05:30:15.842Z,9.40
2022-09-27T05:32:55.655Z,9.40
2022-09-27T05:35:54.384Z,9.40
2022-09-27T05:38:30.076Z,9.40
2022-09-27T05:41:05.542Z,9.40
2022-09-27T05:43:38.827Z,9.40
2022-09-27T05:46:11.952Z,9.50
2022-09-27T05:48:45.114Z,9.50
2022-09-27T05:51:19.291Z,9.50
2022-09-27T05:53:52.241Z,9.50
2022-09-27T05:56:31.485Z,9.50
2022-09-27T05:59:25.946Z,9.50
2022-09-27T06:02:18.474Z,9.60
2022-09-27T06:05:14.626Z,9.60
2022-09-27T06:08:12.678Z,9.60
2022-09-27T06:11:03.469Z,9.70
2022-09-27T06:13:37.518Z,9.70
2022-09-27T06:16:11.826Z,9.70
2022-09-27T06:18:46.671Z,9.80
2022-09-27T06:21:20.266Z,9.80
2022-09-27T06:24:00.187Z,9.80
2022-09-27T06:26:37.096Z,9.90
2022-09-27T06:29:21.471Z,9.90
2022-09-27T06:32:01.433Z,10.00
2022-09-27T06:34:40.175Z,10.00
2022-09-27T06:37:13.182Z,10.00
2022-09-27T06:39:47.068Z,10.00
2022-09-27T06:42:40.266Z,10.00
2022-09-27T06:45:21.883Z,10.10
2022-09-27T06:48:16.064Z,10.10
2022-09-27T06:50:59.918Z,10.20
2022-09-27T06:53:32.743Z,10.20
2022-09-27T06:56:05.903Z,10.30
2022-09-27T06:59:08.458Z,10.20
2022-09-27T07:01:52.390Z,10.20
2022-09-27T07:04:30.636Z,10.20
2022-09-27T07:07:03.361Z,10.20
2022-09-27T07:09:40.123Z,10.30
2022-09-27T07:12:13.568Z,10.30
2022-09-27T07:14:47.152Z,10.20
2022-09-27T07:17:23.091Z,10.30
2022-09-27T07:19:56.769Z,10.30
2022-09-27T07:22:30.867Z,10.30
2022-09-27T07:25:07.923Z,10.30
2022-09-27T07:27:43.606Z,10.40
2022-09-27T07:30:16.991Z,10.30
2022-09-27T07:32:50.126Z,10.40
2022-09-27T07:35:22.990Z,10.40
2022-09-27T07:37:56.917Z,10.50
2022-09-27T07:40:29.834Z,10.50
2022-09-27T07:43:02.717Z,10.50
2022-09-27T07:45:36.237Z,10.50
2022-09-27T07:48:29.689Z,10.50
2022-09-27T07:51:18.907Z,10.50
2022-09-27T07:54:08.586Z,10.50
2022-09-27T07:57:11.323Z,10.50
2022-09-27T07:59:56.453Z,10.50
2022-09-27T08:02:31.237Z,10.60
2022-09-27T08:05:04.912Z,10.60
2022-09-27T08:07:39.483Z,10.60
2022-09-27T08:10:13.113Z,10.70
2022-09-27T08:12:46.262Z,10.70
2022-09-27T08:15:19.008Z,10.70
2022-09-27T08:17:51.906Z,10.70
2022-09-27T08:20:35.579Z,10.70
2022-09-27T08:23:13.612Z,10.70
2022-09-27T08:25:53.887Z,10.70
2022-09-27T08:28:35.487Z,10.60
2022-09-27T08:31:21.644Z,10.50
2022-09-27T08:33:54.908Z,10.40
2022-09-27T08:36:30.640Z,10.40
2022-09-27T08:39:04.430Z,10.40
2022-09-27T08:42:39.513Z,10.40
2022-09-27T08:45:28.817Z,10.40
2022-09-27T08:48:03.869Z,10.50
2022-09-27T08:50:41.916Z,10.60
2022-09-27T08:53:36.927Z,10.60
2022-09-27T08:56:11.045Z,10.90
2022-09-27T08:59:10.344Z,11.00
2022-09-27T09:01:43.764Z,11.30
2022-09-27T09:04:38.621Z,11.50
2022-09-27T09:07:20.651Z,11.60
2022-09-27T09:10:07.372Z,11.70
2022-09-27T09:13:00.546Z,11.60
2022-09-27T09:16:10.423Z,11.50
2022-09-27T09:19:09.003Z,11.50
2022-09-27T09:22:07.695Z,11.50
2022-09-27T09:24:43.828Z,11.60
2022-09-27T09:27:28.134Z,11.70
2022-09-27T09:30:20.478Z,11.70
2022-09-27T09:33:09.386Z,11.80
2022-09-27T09:35:58.221Z,11.80
2022-09-27T09:38:40.347Z,12.00
2022-09-27T09:41:19.292Z,12.10
2022-09-27T09:44:04.783Z,12.40
2022-09-27T09:46:46.046Z,12.50
2022-09-27T09:49:40.975Z,12.60
2022-09-27T09:52:19.682Z,12.70
2022-09-27T09:55:13.107Z,12.60
2022-09-27T09:58:10.828Z,12.60
2022-09-27T10:00:54.470Z,12.80
2022-09-27T10:03:27.693Z,13.10
2022-09-27T10:06:00.669Z,13.40
2022-09-27T10:08:34.065Z,13.40
2022-09-27T10:11:39.771Z,13.60
2022-09-27T10:14:18.170Z,13.60
2022-09-27T10:17:10.154Z,13.80
2022-09-27T10:19:43.054Z,14.10
2022-09-27T10:22:23.620Z,14.40
2022-09-27T10:25:06.900Z,14.60
2022-09-27T10:27:55.853Z,14.60
2022-09-27T10:30:35.170Z,14.50
2022-09-27T10:33:19.009Z,14.40
2022-09-27T10:35:56.331Z,14.40
2022-09-27T10:38:51.271Z,14.30
2022-09-27T10:41:42.295Z,14.20
2022-09-27T10:44:34.214Z,14.00
2022-09-27T10:47:27.035Z,13.80
2022-09-27T10:50:09.491Z,13.60
2022-09-27T10:53:14.039Z,13.30
2022-09-27T10:55:50.731Z,13.10
2022-09-27T10:58:36.762Z,12.90
2022-09-27T11:01:12.460Z,12.80
2022-09-27T11:04:07.359Z,12.60
2022-09-27T11:06:41.013Z,12.60
2022-09-27T11:09:24.073Z,12.50
2022-09-27T11:12:13.081Z,12.40
2022-09-27T11:14:57.091Z,12.20
2022-09-27T11:17:45.208Z,12.20
2022-09-27T11:20:31.094Z,12.30
2022-09-27T11:23:29.478Z,12.20
2022-09-27T11:26:15.930Z,12.20
2022-09-27T11:29:10.133Z,12.20
2022-09-27T11:32:14.577Z,12.20
2022-09-27T11:34:56.149Z,12.10
2022-09-27T11:37:40.727Z,12.00
2022-09-27T11:40:31.907Z,11.90
2022-09-27T11:43:42.589Z,11.80
2022-09-27T11:46:45.618Z,11.80
2022-09-27T11:49:36.428Z,11.70
2022-09-27T11:52:21.544Z,11.60
2022-09-27T11:55:19.396Z,11.50
2022-09-27T11:58:30.705Z,11.60
2022-09-27T12:01:20.335Z,12.10
2022-09-27T12:04:27.167Z,12.60
2022-09-27T12:07:22.393Z,12.90
2022-09-27T12:10:01.355Z,12.90
2022-09-27T12:12:41.212Z,12.90
2022-09-27T12:15:25.261Z,12.80
2022-09-27T12:18:21.563Z,12.70
2022-09-27T12:20:55.680Z,12.60
2022-09-27T12:23:42.047Z,12.50
2022-09-27T12:26:34.598Z,12.40
2022-09-27T12:29:22.290Z,12.40
2022-09-27T12:32:04.100Z,12.60
2022-09-27T12:34:42.282Z,12.90
2022-09-27T12:37:29.047Z,13.30
2022-09-27T12:40:18.511Z,13.60
2022-09-27T12:43:00.138Z,13.90
2022-09-27T12:46:19.770Z,13.90
2022-09-27T12:49:15.471Z,13.90
2022-09-27T12:51:56.341Z,13.60
2022-09-27T12:54:51.928Z,13.50
2022-09-27T12:58:09.836Z,13.30
2022-09-27T13:00:59.290Z,13.10
2022-09-27T13:03:59.654Z,13.00
2022-09-27T13:06:56.976Z,13.00
2022-09-27T13:09:55.388Z,13.00
2022-09-27T13:12:30.893Z,13.20
2022-09-27T13:15:19.097Z,13.30
2022-09-27T13:17:55.320Z,13.20
2022-09-27T13:20:49.070Z,12.90
2022-09-27T13:23:40.075Z,12.30
2022-09-27T13:26:32.147Z,11.90
2022-09-27T13:29:29.532Z,11.60
2022-09-27T13:32:26.159Z,11.50
2022-09-27T13:35:24.383Z,11.30
2022-09-27T13:38:05.940Z,11.20
2022-09-27T13:40:53.968Z,11.10
2022-09-27T13:44:27.414Z,11.10
2022-09-27T13:47:15.635Z,11.10
2022-09-27T13:49:52.644Z,11.00
2022-09-27T13:52:38.010Z,11.20
2022-09-27T13:55:44.922Z,11.30
2022-09-27T13:58:44.225Z,11.50
2022-09-27T14:01:43.850Z,11.50
2022-09-27T14:04:25.584Z,11.60
2022-09-27T14:07:01.702Z,11.70
2022-09-27T14:09:40.634Z,11.80
2022-09-27T14:12:40.130Z,11.80
2022-09-27T14:15:21.144Z,11.80
2022-09-27T14:17:55.294Z,11.80
2022-09-27T14:20:47.866Z,11.80
2022-09-27T14:23:50.631Z,11.90
2022-09-27T14:26:28.221Z,11.90
2022-09-27T14:29:01.256Z,11.90
2022-09-27T14:31:38.915Z,12.00
2022-09-27T14:34:25.893Z,12.00
2022-09-27T14:37:17.636Z,12.10
2022-09-27T14:40:06.004Z,12.10
2022-09-27T14:42:38.827Z,12.20
2022-09-27T14:45:22.255Z,12.30
2022-09-27T14:47:54.998Z,12.40
2022-09-27T14:50:30.959Z,12.40
2022-09-27T14:53:05.238Z,12.40
2022-09-27T14:55:39.596Z,12.40
2022-09-27T14:58:29.710Z,12.30
2022-09-27T15:01:15.034Z,12.30
2022-09-27T15:03:49.022Z,12.20
2022-09-27T15:06:24.830Z,12.20
2022-09-27T15:08:59.763Z,12.10
2022-09-27T15:11:34.790Z,12.10
2022-09-27T15:14:13.630Z,12.00
2022-09-27T15:16:52.367Z,12.00
2022-09-27T15:19:27.903Z,11.90
2022-09-27T15:22:36.541Z,11.90
2022-09-27T15:25:23.600Z,11.80
2022-09-27T15:27:56.490Z,11.80
2022-09-27T15:30:38.313Z,11.70
2022-09-27T15:33:24.108Z,11.70
2022-09-27T15:36:01.571Z,11.70
2022-09-27T15:38:40.558Z,11.60
2022-09-27T15:41:18.643Z,11.60
2022-09-27T15:43:52.724Z,11.70
2022-09-27T15:46:36.289Z,11.70
2022-09-27T15:49:30.379Z,11.80
2022-09-27T15:52:05.100Z,11.80
2022-09-27T15:54:38.188Z,11.80
2022-09-27T15:57:12.254Z,11.90
2022-09-27T15:59:45.008Z,11.90
2022-09-27T16:02:19.418Z,11.90
2022-09-27T16:04:52.332Z,11.90
2022-09-27T16:07:25.020Z,11.90
2022-09-27T16:09:57.852Z,11.90
2022-09-27T16:12:31.156Z,11.90
2022-09-27T16:15:05.030Z,12.00
2022-09-27T16:17:39.178Z,12.00
2022-09-27T16:20:23.563Z,11.90
2022-09-27T16:22:57.505Z,12.00
2022-09-27T16:25:30.527Z,12.00
2022-09-27T16:28:05.239Z,12.00
2022-09-27T16:30:38.123Z,12.00
2022-09-27T16:33:10.893Z,12.00
2022-09-27T16:35:43.618Z,12.00
2022-09-27T16:38:16.745Z,11.90
2022-09-27T16:40:49.518Z,11.90
2022-09-27T16:43:27.248Z,11.80
2022-09-27T16:46:09.124Z,11.80
2022-09-27T16:48:42.739Z,11.80
2022-09-27T16:51:37.050Z,11.80
2022-09-27T16:54:09.884Z,11.70
2022-09-27T16:56:42.902Z,11.70
2022-09-27T16:59:15.647Z,11.70
2022-09-27T17:01:48.534Z,11.60
2022-09-27T17:04:21.296Z,11.50
2022-09-27T17:06:54.791Z,11.40
2022-09-27T17:09:27.498Z,11.30
2022-09-27T17:12:00.287Z,11.30
2022-09-27T17:14:32.941Z,11.20
2022-09-27T17:17:06.500Z,11.20
2022-09-27T17:19:39.299Z,11.10
2022-09-27T17:22:12.047Z,11.10
2022-09-27T17:24:44.710Z,11.10
2022-09-27T17:27:17.537Z,11.00
2022-09-27T17:29:50.393Z,11.00
2022-09-27T17:32:24.593Z,11.00
2022-09-27T17:34:58.801Z,11.10
2022-09-27T17:37:31.519Z,11.00
2022-09-27T17:40:05.188Z,11.00
2022-09-27T17:42:38.197Z,11.00
2022-09-27T17:45:10.943Z,11.10
2022-09-27T17:48:02.172Z,11.10
2022-09-27T17:50:37.386Z,11.10
2022-09-27T17:53:10.097Z,11.10
2022-09-27T17:55:42.820Z,11.10
2022-09-27T17:58:15.514Z,11.10
2022-09-27T18:00:48.231Z,11.00
2022-09-27T18:03:21.321Z,11.10
2022-09-27T18:05:54.244Z,11.00
2022-09-27T18:08:30.395Z,11.00
2022-09-27T18:11:05.210Z,11.00
2022-09-27T18:13:41.665Z,10.90
2022-09-27T18:16:16.767Z,10.90
2022-09-27T18:18:49.707Z,10.90
2022-09-27T18:21:23.602Z,10.80
2022-09-27T18:23:57.820Z,10.80
2022-09-27T18:26:32.414Z,10.80
2022-09-27T18:29:08.042Z,10.80
2022-09-27T18:31:47.462Z,10.80
2022-09-27T18:34:21.187Z,10.80
2022-09-27T18:36:53.992Z,10.80
2022-09-27T18:39:26.732Z,10.90
2022-09-27T18:41:59.473Z,10.90
2022-09-27T18:44:32.888Z,10.90
2022-09-27T18:47:05.700Z,10.80
2022-09-27T18:49:38.448Z,10.90
2022-09-27T18:52:11.184Z,10.80
2022-09-27T18:54:43.946Z,10.80
2022-09-27T18:57:16.619Z,10.80
2022-09-27T18:59:49.333Z,10.80
2022-09-27T19:02:22.034Z,10.80
2022-09-27T19:04:54.759Z,10.80
2022-09-27T19:07:27.474Z,10.80
2022-09-27T19:10:01.715Z,10.80
2022-09-27T19:12:34.646Z,10.80
2022-09-27T19:15:08.323Z,10.70
2022-09-27T19:17:41.305Z,10.80
2022-09-27T19:20:14.195Z,10.70
2022-09-27T19:22:47.088Z,10.80
2022-09-27T19:25:19.902Z,10.70
2022-09-27T19:27:53.181Z,10.70
2022-09-27T19:30:25.999Z,10.70
2022-09-27T19:32:58.776Z,10.70
2022-09-27T19:35:31.599Z,10.70
2022-09-27T19:38:04.335Z,10.70
2022-09-27T19:40:37.126Z,10.70
2022-09-27T19:43:10.092Z,10.60
2022-09-27T19:45:42.836Z,10.60
2022-09-27T19:48:15.720Z,10.60
2022-09-27T19:50:59.554Z,10.60
2022-09-27T19:53:33.528Z,10.50
2022-09-27T19:56:07.975Z,10.50
2022-09-27T19:58:42.115Z,10.50
2022-09-27T20:01:25.127Z,10.50
2022-09-27T20:03:59.667Z,10.50
2022-09-27T20:06:32.649Z,10.60
2022-09-27T20:09:05.870Z,10.50
2022-09-27T20:11:38.860Z,10.50
2022-09-27T20:14:11.679Z,10.50
2022-09-27T20:16:44.358Z,10.60
2022-09-27T20:19:17.303Z,10.50
2022-09-27T20:21:50.087Z,10.50
2022-09-27T20:24:22.950Z,10.60
2022-09-27T20:26:55.686Z,10.50
2022-09-27T20:29:28.437Z,10.60
2022-09-27T20:32:26.002Z,10.60
2022-09-27T20:34:54.481Z,10.60
2022-09-27T20:37:27.180Z,10.60
2022-09-27T20:39:59.955Z,10.60
2022-09-27T20:42:32.720Z,10.60
2022-09-27T20:45:05.747Z,10.60
2022-09-27T20:47:39.272Z,10.60
2022-09-27T20:50:12.438Z,10.60
2022-09-27T20:52:45.333Z,10.60
2022-09-27T20:55:17.989Z,10.50
2022-09-27T20:57:57.573Z,10.50
2022-09-27T21:00:30.638Z,10.50
2022-09-27T21:03:03.661Z,10.50
2022-09-27T21:05:36.374Z,10.40
2022-09-27T21:08:09.145Z,10.40
2022-09-27T21:10:41.900Z,10.40
2022-09-27T21:13:15.069Z,10.40
2022-09-27T21:15:48.124Z,10.40
2022-09-27T21:18:20.895Z,10.40
2022-09-27T21:21:01.298Z,10.40
2022-09-27T21:23:36.812Z,10.40
2022-09-27T21:26:14.452Z,10.40
2022-09-27T21:28:49.501Z,10.40
2022-09-27T21:31:31.683Z,10.40
2022-09-27T21:34:05.894Z,10.40
2022-09-27T21:36:39.280Z,10.40
2022-09-27T21:39:12.056Z,10.40
2022-09-27T21:41:45.256Z,10.40
2022-09-27T21:44:18.009Z,10.40
2022-09-27T21:46:51.881Z,10.50
2022-09-27T21:49:24.737Z,10.50
2022-09-27T21:51:57.492Z,10.50
2022-09-27T21:54:31.463Z,10.50
2022-09-27T21:57:04.227Z,10.50
2022-09-27T21:59:36.965Z,10.50
2022-09-27T22:02:09.725Z,10.50
2022-09-27T22:04:42.685Z,10.60
2022-09-27T22:07:15.908Z,10.50
2022-09-27T22:09:49.409Z,10.60
2022-09-27T22:12:22.065Z,10.50
2022-09-27T22:14:54.861Z,10.60
2022-09-27T22:17:27.612Z,10.60
2022-09-27T22:20:00.464Z,10.60
2022-09-27T22:22:33.486Z,10.60
2022-09-27T22:25:06.359Z,10.60
2022-09-27T22:27:39.011Z,10.60
2022-09-27T22:30:12.399Z,10.60
2022-09-27T22:32:45.652Z,10.70
2022-09-27T22:35:18.437Z,10.60
2022-09-27T22:37:52.593Z,10.60
2022-09-27T22:40:25.542Z,10.60
2022-09-27T22:42:58.911Z,10.60
2022-09-27T22:45:31.671Z,10.60
2022-09-27T22:48:04.372Z,10.60
2022-09-27T22:50:37.139Z,10.60
2022-09-27T22:53:09.800Z,10.60
2022-09-27T22:55:42.581Z,10.60
2022-09-27T22:58:15.910Z,10.60
2022-09-27T23:00:48.644Z,10.70
2022-09-27T23:03:21.770Z,10.70
2022-09-27T23:06:01.094Z,10.70
2022-09-27T23:08:35.244Z,10.70
2022-09-27T23:11:11.153Z,10.70
2022-09-27T23:13:44.642Z,10.70
2022-09-27T23:16:20.308Z,10.70
2022-09-27T23:18:54.421Z,10.70
2022-09-27T23:21:28.736Z,10.70
2022-09-27T23:24:01.613Z,10.70
2022-09-27T23:26:34.330Z,10.70
2022-09-27T23:29:07.231Z,10.60
2022-09-27T23:31:40.015Z,10.60
2022-09-27T23:34:14.857Z,10.60
2022-09-27T23:36:47.638Z,10.60
2022-09-27T23:39:20.449Z,10.60
2022-09-27T23:41:53.405Z,10.60
2022-09-27T23:44:26.156Z,10.60
2022-09-27T23:47:00.628Z,10.60
2022-09-27T23:49:33.421Z,10.60
2022-09-27T23:52:06.550Z,10.60
2022-09-27T23:54:39.399Z,10.60
2022-09-27T23:57:12.209Z,10.60
2022-09-27T23:59:44.870Z,10.60
